sensor_id;sensor_type;location;lat;lon;timestamp;P1;durP1;ratioP1;P2;durP2;ratioP2
6077;SDS011;3067;49.470;10.394;2022-11-02T00:00:50;5.07;;;3.80;;
6077;SDS011;3067;49.470;10.394;2022-11-02T00:03:18;8.83;;;3.73;;
6077;SDS011;3067;49.470;10.394;2022-11-02T00:05:45;4.60;;;4.03;;
6077;SDS011;3067;49.470;10.394;2022-11-02T00:08:12;7.93;;;4.30;;
6077;SDS011;3067;49.470;10.394;2022-11-02T00:10:40;6.00;;;4.30;;
6077;SDS011;3067;49.470;10.394;2022-11-02T00:13:07;4.37;;;3.97;;
6077;SDS011;3067;49.470;10.394;2022-11-02T00:15:36;3.80;;;3.50;;
6077;SDS011;3067;49.470;10.394;2022-11-02T00:18:04;6.63;;;4.23;;
6077;SDS011;3067;49.470;10.394;2022-11-02T00:20:31;7.73;;;4.13;;
6077;SDS011;3067;49.470;10.394;2022-11-02T00:22:59;4.83;;;4.40;;
6077;SDS011;3067;49.470;10.394;2022-11-02T00:25:27;9.63;;;4.13;;
6077;SDS011;3067;49.470;10.394;2022-11-02T00:27:55;7.03;;;4.47;;
6077;SDS011;3067;49.470;10.394;2022-11-02T00:30:22;6.90;;;4.03;;
6077;SDS011;3067;49.470;10.394;2022-11-02T00:32:51;9.97;;;3.80;;
6077;SDS011;3067;49.470;10.394;2022-11-02T00:35:18;4.30;;;3.90;;
6077;SDS011;3067;49.470;10.394;2022-11-02T00:37:46;6.83;;;4.30;;
6077;SDS011;3067;49.470;10.394;2022-11-02T00:40:13;4.00;;;3.70;;
6077;SDS011;3067;49.470;10.394;2022-11-02T00:42:41;8.30;;;3.93;;
6077;SDS011;3067;49.470;10.394;2022-11-02T00:45:08;4.03;;;3.63;;
6077;SDS011;3067;49.470;10.394;2022-11-02T00:47:36;9.73;;;3.93;;
6077;SDS011;3067;49.470;10.394;2022-11-02T00:50:05;3.50;;;3.23;;
6077;SDS011;3067;49.470;10.394;2022-11-02T00:52:32;11.03;;;4.00;;
6077;SDS011;3067;49.470;10.394;2022-11-02T00:55:00;9.83;;;3.90;;
6077;SDS011;3067;49.470;10.394;2022-11-02T00:57:27;4.07;;;3.67;;
6077;SDS011;3067;49.470;10.394;2022-11-02T00:59:55;3.93;;;3.60;;
6077;SDS011;3067;49.470;10.394;2022-11-02T01:02:22;6.47;;;3.67;;
6077;SDS011;3067;49.470;10.394;2022-11-02T01:04:50;4.23;;;3.83;;
6077;SDS011;3067;49.470;10.394;2022-11-02T01:07:18;11.23;;;4.40;;
6077;SDS011;3067;49.470;10.394;2022-11-02T01:09:46;4.33;;;3.93;;
6077;SDS011;3067;49.470;10.394;2022-11-02T01:12:14;9.33;;;4.30;;
6077;SDS011;3067;49.470;10.394;2022-11-02T01:14:41;6.10;;;4.43;;
6077;SDS011;3067;49.470;10.394;2022-11-02T01:17:08;10.50;;;2.90;;
6077;SDS011;3067;49.470;10.394;2022-11-02T01:19:35;4.07;;;3.20;;
6077;SDS011;3067;49.470;10.394;2022-11-02T01:22:03;3.67;;;2.63;;
6077;SDS011;3067;49.470;10.394;2022-11-02T01:24:31;7.50;;;2.63;;
6077;SDS011;3067;49.470;10.394;2022-11-02T01:26:59;3.60;;;2.37;;
6077;SDS011;3067;49.470;10.394;2022-11-02T01:29:26;5.23;;;2.17;;
6077;SDS011;3067;49.470;10.394;2022-11-02T01:31:53;7.40;;;2.23;;
6077;SDS011;3067;49.470;10.394;2022-11-02T01:34:21;5.87;;;2.10;;
6077;SDS011;3067;49.470;10.394;2022-11-02T01:36:48;5.97;;;1.93;;
6077;SDS011;3067;49.470;10.394;2022-11-02T01:39:15;5.80;;;1.90;;
6077;SDS011;3067;49.470;10.394;2022-11-02T01:41:44;10.03;;;2.60;;
6077;SDS011;3067;49.470;10.394;2022-11-02T01:44:28;7.10;;;1.87;;
6077;SDS011;3067;49.470;10.394;2022-11-02T01:46:56;5.33;;;2.03;;
6077;SDS011;3067;49.470;10.394;2022-11-02T01:49:24;3.87;;;2.10;;
6077;SDS011;3067;49.470;10.394;2022-11-02T01:51:54;3.57;;;1.70;;
6077;SDS011;3067;49.470;10.394;2022-11-02T01:54:23;3.73;;;1.70;;
6077;SDS011;3067;49.470;10.394;2022-11-02T01:56:54;5.87;;;1.57;;
6077;SDS011;3067;49.470;10.394;2022-11-02T01:59:29;4.53;;;1.80;;
6077;SDS011;3067;49.470;10.394;2022-11-02T02:01:57;5.43;;;2.00;;
6077;SDS011;3067;49.470;10.394;2022-11-02T02:04:25;3.20;;;1.70;;
6077;SDS011;3067;49.470;10.394;2022-11-02T02:06:53;4.03;;;1.80;;
6077;SDS011;3067;49.470;10.394;2022-11-02T02:09:22;2.23;;;2.03;;
6077;SDS011;3067;49.470;10.394;2022-11-02T02:11:50;6.10;;;1.90;;
6077;SDS011;3067;49.470;10.394;2022-11-02T02:14:19;7.90;;;2.13;;
6077;SDS011;3067;49.470;10.394;2022-11-02T02:16:55;4.83;;;2.60;;
6077;SDS011;3067;49.470;10.394;2022-11-02T02:19:36;8.27;;;1.77;;
6077;SDS011;3067;49.470;10.394;2022-11-02T02:22:10;8.73;;;2.07;;
6077;SDS011;3067;49.470;10.394;2022-11-02T02:24:43;3.57;;;2.00;;
6077;SDS011;3067;49.470;10.394;2022-11-02T02:27:11;8.13;;;1.87;;
6077;SDS011;3067;49.470;10.394;2022-11-02T02:29:45;6.33;;;2.00;;
6077;SDS011;3067;49.470;10.394;2022-11-02T02:32:14;4.33;;;1.93;;
6077;SDS011;3067;49.470;10.394;2022-11-02T02:34:44;3.57;;;1.90;;
6077;SDS011;3067;49.470;10.394;2022-11-02T02:37:15;6.97;;;2.60;;
6077;SDS011;3067;49.470;10.394;2022-11-02T02:39:46;3.93;;;2.10;;
6077;SDS011;3067;49.470;10.394;2022-11-02T02:42:17;5.30;;;2.60;;
6077;SDS011;3067;49.470;10.394;2022-11-02T02:44:48;6.97;;;2.50;;
6077;SDS011;3067;49.470;10.394;2022-11-02T02:47:18;4.10;;;2.50;;
6077;SDS011;3067;49.470;10.394;2022-11-02T02:49:49;7.70;;;2.40;;
6077;SDS011;3067;49.470;10.394;2022-11-02T02:52:17;5.60;;;2.43;;
6077;SDS011;3067;49.470;10.394;2022-11-02T02:54:45;5.30;;;2.30;;
6077;SDS011;3067;49.470;10.394;2022-11-02T02:57:15;8.30;;;2.33;;
6077;SDS011;3067;49.470;10.394;2022-11-02T02:59:43;5.13;;;2.00;;
6077;SDS011;3067;49.470;10.394;2022-11-02T03:02:15;10.23;;;2.43;;
6077;SDS011;3067;49.470;10.394;2022-11-02T03:04:43;4.83;;;2.13;;
6077;SDS011;3067;49.470;10.394;2022-11-02T03:07:10;6.83;;;2.50;;
6077;SDS011;3067;49.470;10.394;2022-11-02T03:09:40;4.80;;;2.20;;
6077;SDS011;3067;49.470;10.394;2022-11-02T03:12:13;3.47;;;2.20;;
6077;SDS011;3067;49.470;10.394;2022-11-02T03:14:46;3.63;;;2.40;;
6077;SDS011;3067;49.470;10.394;2022-11-02T03:17:18;5.50;;;2.43;;
6077;SDS011;3067;49.470;10.394;2022-11-02T03:19:48;6.10;;;2.17;;
6077;SDS011;3067;49.470;10.394;2022-11-02T03:22:21;5.33;;;2.63;;
6077;SDS011;3067;49.470;10.394;2022-11-02T03:24:51;2.70;;;2.40;;
6077;SDS011;3067;49.470;10.394;2022-11-02T03:27:21;6.63;;;2.87;;
6077;SDS011;3067;49.470;10.394;2022-11-02T03:29:52;4.93;;;3.20;;
6077;SDS011;3067;49.470;10.394;2022-11-02T03:32:24;9.40;;;2.90;;
6077;SDS011;3067;49.470;10.394;2022-11-02T03:34:53;7.53;;;2.73;;
6077;SDS011;3067;49.470;10.394;2022-11-02T03:37:23;3.50;;;2.30;;
6077;SDS011;3067;49.470;10.394;2022-11-02T03:39:52;2.50;;;2.30;;
6077;SDS011;3067;49.470;10.394;2022-11-02T03:42:21;5.83;;;2.47;;
6077;SDS011;3067;49.470;10.394;2022-11-02T03:44:49;10.47;;;2.50;;
6077;SDS011;3067;49.470;10.394;2022-11-02T03:47:19;4.30;;;2.80;;
6077;SDS011;3067;49.470;10.394;2022-11-02T03:49:48;3.67;;;2.53;;
6077;SDS011;3067;49.470;10.394;2022-11-02T03:52:20;12.70;;;2.57;;
6077;SDS011;3067;49.470;10.394;2022-11-02T03:54:50;5.33;;;2.70;;
6077;SDS011;3067;49.470;10.394;2022-11-02T03:57:20;2.40;;;2.20;;
6077;SDS011;3067;49.470;10.394;2022-11-02T03:59:49;2.40;;;2.30;;
6077;SDS011;3067;49.470;10.394;2022-11-02T04:02:17;5.23;;;2.47;;
6077;SDS011;3067;49.470;10.394;2022-11-02T04:04:50;7.87;;;3.03;;
6077;SDS011;3067;49.470;10.394;2022-11-02T04:07:18;4.80;;;2.37;;
6077;SDS011;3067;49.470;10.394;2022-11-02T04:09:46;7.90;;;2.00;;
6077;SDS011;3067;49.470;10.394;2022-11-02T04:12:13;4.67;;;2.20;;
6077;SDS011;3067;49.470;10.394;2022-11-02T04:14:58;8.00;;;2.63;;
6077;SDS011;3067;49.470;10.394;2022-11-02T04:17:26;10.50;;;7.30;;
6077;SDS011;3067;49.470;10.394;2022-11-02T04:20:12;9.23;;;3.47;;
6077;SDS011;3067;49.470;10.394;2022-11-02T04:22:39;10.70;;;4.00;;
6077;SDS011;3067;49.470;10.394;2022-11-02T04:25:24;4.00;;;3.20;;
6077;SDS011;3067;49.470;10.394;2022-11-02T04:27:52;6.87;;;2.67;;
6077;SDS011;3067;49.470;10.394;2022-11-02T04:30:19;5.00;;;2.60;;
6077;SDS011;3067;49.470;10.394;2022-11-02T04:32:48;4.00;;;2.70;;
6077;SDS011;3067;49.470;10.394;2022-11-02T04:35:35;3.80;;;2.47;;
6077;SDS011;3067;49.470;10.394;2022-11-02T04:38:02;6.63;;;2.30;;
6077;SDS011;3067;49.470;10.394;2022-11-02T04:40:47;4.93;;;2.70;;
6077;SDS011;3067;49.470;10.394;2022-11-02T04:43:35;5.50;;;2.80;;
6077;SDS011;3067;49.470;10.394;2022-11-02T04:46:02;2.50;;;2.30;;
6077;SDS011;3067;49.470;10.394;2022-11-02T04:48:29;6.97;;;2.70;;
6077;SDS011;3067;49.470;10.394;2022-11-02T04:50:58;5.17;;;2.60;;
6077;SDS011;3067;49.470;10.394;2022-11-02T04:53:25;3.90;;;2.20;;
6077;SDS011;3067;49.470;10.394;2022-11-02T04:55:53;2.30;;;2.17;;
6077;SDS011;3067;49.470;10.394;2022-11-02T04:58:20;5.73;;;2.43;;
6077;SDS011;3067;49.470;10.394;2022-11-02T05:00:47;7.97;;;2.93;;
6077;SDS011;3067;49.470;10.394;2022-11-02T05:03:14;4.57;;;2.97;;
6077;SDS011;3067;49.470;10.394;2022-11-02T05:05:42;8.23;;;3.17;;
6077;SDS011;3067;49.470;10.394;2022-11-02T05:08:10;3.20;;;2.40;;
6077;SDS011;3067;49.470;10.394;2022-11-02T05:10:37;5.20;;;2.40;;
6077;SDS011;3067;49.470;10.394;2022-11-02T05:13:05;7.63;;;2.60;;
6077;SDS011;3067;49.470;10.394;2022-11-02T05:15:32;5.70;;;2.30;;
6077;SDS011;3067;49.470;10.394;2022-11-02T05:17:59;5.63;;;2.43;;
6077;SDS011;3067;49.470;10.394;2022-11-02T05:20:27;7.90;;;2.37;;
6077;SDS011;3067;49.470;10.394;2022-11-02T05:22:54;2.53;;;2.23;;
6077;SDS011;3067;49.470;10.394;2022-11-02T05:25:23;7.00;;;2.17;;
6077;SDS011;3067;49.470;10.394;2022-11-02T05:27:50;6.83;;;2.00;;
6077;SDS011;3067;49.470;10.394;2022-11-02T05:30:17;3.40;;;1.83;;
6077;SDS011;3067;49.470;10.394;2022-11-02T05:32:45;6.63;;;2.70;;
6077;SDS011;3067;49.470;10.394;2022-11-02T05:35:12;3.87;;;2.13;;
6077;SDS011;3067;49.470;10.394;2022-11-02T05:37:39;7.87;;;2.70;;
6077;SDS011;3067;49.470;10.394;2022-11-02T05:40:07;5.13;;;2.40;;
6077;SDS011;3067;49.470;10.394;2022-11-02T05:42:36;10.80;;;2.37;;
6077;SDS011;3067;49.470;10.394;2022-11-02T05:45:04;3.57;;;2.20;;
6077;SDS011;3067;49.470;10.394;2022-11-02T05:47:32;2.63;;;2.03;;
6077;SDS011;3067;49.470;10.394;2022-11-02T05:49:59;4.77;;;2.20;;
6077;SDS011;3067;49.470;10.394;2022-11-02T05:52:26;10.53;;;2.47;;
6077;SDS011;3067;49.470;10.394;2022-11-02T05:54:54;5.13;;;2.97;;
6077;SDS011;3067;49.470;10.394;2022-11-02T05:57:21;4.40;;;2.47;;
6077;SDS011;3067;49.470;10.394;2022-11-02T05:59:50;2.30;;;2.10;;
6077;SDS011;3067;49.470;10.394;2022-11-02T06:02:17;4.90;;;2.37;;
6077;SDS011;3067;49.470;10.394;2022-11-02T06:04:44;4.20;;;1.80;;
6077;SDS011;3067;49.470;10.394;2022-11-02T06:07:12;7.33;;;2.53;;
6077;SDS011;3067;49.470;10.394;2022-11-02T06:09:39;9.77;;;2.50;;
6077;SDS011;3067;49.470;10.394;2022-11-02T06:12:06;5.40;;;2.50;;
6077;SDS011;3067;49.470;10.394;2022-11-02T06:14:33;7.73;;;2.00;;
6077;SDS011;3067;49.470;10.394;2022-11-02T06:17:02;4.73;;;2.27;;
6077;SDS011;3067;49.470;10.394;2022-11-02T06:19:29;5.60;;;1.83;;
6077;SDS011;3067;49.470;10.394;2022-11-02T06:21:57;6.43;;;2.40;;
6077;SDS011;3067;49.470;10.394;2022-11-02T06:24:24;4.97;;;1.90;;
6077;SDS011;3067;49.470;10.394;2022-11-02T06:26:51;5.23;;;2.40;;
6077;SDS011;3067;49.470;10.394;2022-11-02T06:29:19;12.10;;;3.17;;
6077;SDS011;3067;49.470;10.394;2022-11-02T06:31:46;9.37;;;2.13;;
6077;SDS011;3067;49.470;10.394;2022-11-02T06:34:15;2.83;;;1.87;;
6077;SDS011;3067;49.470;10.394;2022-11-02T06:36:42;5.07;;;1.93;;
6077;SDS011;3067;49.470;10.394;2022-11-02T06:39:10;2.60;;;2.20;;
6077;SDS011;3067;49.470;10.394;2022-11-02T06:41:37;3.67;;;3.30;;
6077;SDS011;3067;49.470;10.394;2022-11-02T06:44:04;8.20;;;3.03;;
6077;SDS011;3067;49.470;10.394;2022-11-02T06:46:32;5.83;;;2.50;;
6077;SDS011;3067;49.470;10.394;2022-11-02T06:48:59;7.93;;;2.20;;
6077;SDS011;3067;49.470;10.394;2022-11-02T06:51:27;7.20;;;2.77;;
6077;SDS011;3067;49.470;10.394;2022-11-02T06:53:55;9.80;;;2.47;;
6077;SDS011;3067;49.470;10.394;2022-11-02T06:56:22;4.63;;;1.70;;
6077;SDS011;3067;49.470;10.394;2022-11-02T06:58:49;4.53;;;2.20;;
6077;SDS011;3067;49.470;10.394;2022-11-02T07:01:17;6.70;;;2.00;;
6077;SDS011;3067;49.470;10.394;2022-11-02T07:03:44;7.33;;;2.77;;
6077;SDS011;3067;49.470;10.394;2022-11-02T07:06:11;7.07;;;2.50;;
6077;SDS011;3067;49.470;10.394;2022-11-02T07:08:40;4.10;;;3.03;;
6077;SDS011;3067;49.470;10.394;2022-11-02T07:11:07;4.93;;;2.30;;
6077;SDS011;3067;49.470;10.394;2022-11-02T07:13:38;4.87;;;2.00;;
6077;SDS011;3067;49.470;10.394;2022-11-02T07:16:05;3.20;;;2.23;;
6077;SDS011;3067;49.470;10.394;2022-11-02T07:18:33;5.43;;;2.40;;
6077;SDS011;3067;49.470;10.394;2022-11-02T07:21:00;3.07;;;1.80;;
6077;SDS011;3067;49.470;10.394;2022-11-02T07:23:27;7.10;;;2.23;;
6077;SDS011;3067;49.470;10.394;2022-11-02T07:25:56;6.17;;;2.80;;
6077;SDS011;3067;49.470;10.394;2022-11-02T07:28:23;7.00;;;2.40;;
6077;SDS011;3067;49.470;10.394;2022-11-02T07:30:52;8.47;;;2.67;;
6077;SDS011;3067;49.470;10.394;2022-11-02T07:33:19;16.40;;;2.67;;
6077;SDS011;3067;49.470;10.394;2022-11-02T07:35:47;4.13;;;2.63;;
6077;SDS011;3067;49.470;10.394;2022-11-02T07:38:14;4.47;;;1.90;;
6077;SDS011;3067;49.470;10.394;2022-11-02T07:40:41;6.50;;;2.23;;
6077;SDS011;3067;49.470;10.394;2022-11-02T07:43:10;4.30;;;2.17;;
6077;SDS011;3067;49.470;10.394;2022-11-02T07:45:37;11.80;;;2.97;;
6077;SDS011;3067;49.470;10.394;2022-11-02T07:48:04;6.40;;;2.00;;
6077;SDS011;3067;49.470;10.394;2022-11-02T07:50:32;4.60;;;2.13;;
6077;SDS011;3067;49.470;10.394;2022-11-02T07:52:59;3.60;;;2.27;;
6077;SDS011;3067;49.470;10.394;2022-11-02T07:55:27;4.80;;;2.43;;
6077;SDS011;3067;49.470;10.394;2022-11-02T07:57:55;2.53;;;2.23;;
6077;SDS011;3067;49.470;10.394;2022-11-02T08:00:24;5.13;;;2.40;;
6077;SDS011;3067;49.470;10.394;2022-11-02T08:02:55;3.03;;;1.80;;
6077;SDS011;3067;49.470;10.394;2022-11-02T08:05:23;6.40;;;1.60;;
6077;SDS011;3067;49.470;10.394;2022-11-02T08:07:57;4.10;;;1.93;;
6077;SDS011;3067;49.470;10.394;2022-11-02T08:10:24;2.70;;;1.70;;
6077;SDS011;3067;49.470;10.394;2022-11-02T08:12:52;4.03;;;1.90;;
6077;SDS011;3067;49.470;10.394;2022-11-02T08:15:19;8.70;;;2.00;;
6077;SDS011;3067;49.470;10.394;2022-11-02T08:17:53;10.67;;;2.00;;
6077;SDS011;3067;49.470;10.394;2022-11-02T08:20:25;6.37;;;1.90;;
6077;SDS011;3067;49.470;10.394;2022-11-02T08:22:52;4.03;;;1.80;;
6077;SDS011;3067;49.470;10.394;2022-11-02T08:25:19;2.27;;;1.80;;
6077;SDS011;3067;49.470;10.394;2022-11-02T08:27:46;6.53;;;2.53;;
6077;SDS011;3067;49.470;10.394;2022-11-02T08:30:14;7.10;;;1.80;;
6077;SDS011;3067;49.470;10.394;2022-11-02T08:32:41;6.53;;;1.87;;
6077;SDS011;3067;49.470;10.394;2022-11-02T08:35:10;5.27;;;1.90;;
6077;SDS011;3067;49.470;10.394;2022-11-02T08:37:37;11.83;;;2.00;;
6077;SDS011;3067;49.470;10.394;2022-11-02T08:40:05;9.57;;;1.90;;
6077;SDS011;3067;49.470;10.394;2022-11-02T08:42:32;6.40;;;2.50;;
6077;SDS011;3067;49.470;10.394;2022-11-02T08:45:03;6.37;;;1.83;;
6077;SDS011;3067;49.470;10.394;2022-11-02T08:47:31;9.83;;;2.07;;
6077;SDS011;3067;49.470;10.394;2022-11-02T08:49:58;7.67;;;2.40;;
6077;SDS011;3067;49.470;10.394;2022-11-02T08:52:26;3.70;;;2.00;;
6077;SDS011;3067;49.470;10.394;2022-11-02T08:54:54;6.73;;;1.53;;
6077;SDS011;3067;49.470;10.394;2022-11-02T08:57:21;8.23;;;2.20;;
6077;SDS011;3067;49.470;10.394;2022-11-02T08:59:48;7.10;;;2.00;;
6077;SDS011;3067;49.470;10.394;2022-11-02T09:02:15;8.03;;;2.10;;
6077;SDS011;3067;49.470;10.394;2022-11-02T09:04:43;3.00;;;1.50;;
6077;SDS011;3067;49.470;10.394;2022-11-02T09:07:10;8.43;;;1.90;;
6077;SDS011;3067;49.470;10.394;2022-11-02T09:09:39;4.00;;;1.80;;
6077;SDS011;3067;49.470;10.394;2022-11-02T09:12:06;4.87;;;2.10;;
6077;SDS011;3067;49.470;10.394;2022-11-02T09:14:33;7.50;;;2.30;;
6077;SDS011;3067;49.470;10.394;2022-11-02T09:17:01;4.47;;;2.20;;
6077;SDS011;3067;49.470;10.394;2022-11-02T09:19:28;7.13;;;1.90;;
6077;SDS011;3067;49.470;10.394;2022-11-02T09:21:55;4.27;;;1.73;;
6077;SDS011;3067;49.470;10.394;2022-11-02T09:24:22;3.07;;;2.23;;
6077;SDS011;3067;49.470;10.394;2022-11-02T09:26:52;4.77;;;1.97;;
6077;SDS011;3067;49.470;10.394;2022-11-02T09:29:19;5.93;;;1.70;;
6077;SDS011;3067;49.470;10.394;2022-11-02T09:31:46;16.27;;;2.43;;
6077;SDS011;3067;49.470;10.394;2022-11-02T09:34:14;6.30;;;1.93;;
6077;SDS011;3067;49.470;10.394;2022-11-02T09:36:41;4.53;;;2.10;;
6077;SDS011;3067;49.470;10.394;2022-11-02T09:39:09;13.03;;;2.30;;
6077;SDS011;3067;49.470;10.394;2022-11-02T09:41:37;6.80;;;2.60;;
6077;SDS011;3067;49.470;10.394;2022-11-02T09:44:09;8.53;;;2.27;;
6077;SDS011;3067;49.470;10.394;2022-11-02T09:46:38;4.97;;;2.57;;
6077;SDS011;3067;49.470;10.394;2022-11-02T09:49:09;5.43;;;3.07;;
6077;SDS011;3067;49.470;10.394;2022-11-02T09:51:38;5.33;;;2.50;;
6077;SDS011;3067;49.470;10.394;2022-11-02T09:54:07;9.53;;;2.73;;
6077;SDS011;3067;49.470;10.394;2022-11-02T09:56:38;10.20;;;2.20;;
6077;SDS011;3067;49.470;10.394;2022-11-02T09:59:10;7.80;;;2.53;;
6077;SDS011;3067;49.470;10.394;2022-11-02T10:01:50;10.10;;;2.10;;
6077;SDS011;3067;49.470;10.394;2022-11-02T10:07:03;9.80;;;2.60;;
6077;SDS011;3067;49.470;10.394;2022-11-02T10:09:32;8.37;;;2.43;;
6077;SDS011;3067;49.470;10.394;2022-11-02T10:12:03;6.30;;;2.60;;
6077;SDS011;3067;49.470;10.394;2022-11-02T10:14:36;4.43;;;2.30;;
6077;SDS011;3067;49.470;10.394;2022-11-02T10:17:09;6.20;;;2.17;;
6077;SDS011;3067;49.470;10.394;2022-11-02T10:19:39;5.40;;;2.13;;
6077;SDS011;3067;49.470;10.394;2022-11-02T10:22:07;5.40;;;2.20;;
6077;SDS011;3067;49.470;10.394;2022-11-02T10:24:37;3.27;;;1.67;;
6077;SDS011;3067;49.470;10.394;2022-11-02T10:27:09;5.30;;;1.80;;
6077;SDS011;3067;49.470;10.394;2022-11-02T10:29:41;7.50;;;2.27;;
6077;SDS011;3067;49.470;10.394;2022-11-02T10:32:09;8.53;;;2.50;;
6077;SDS011;3067;49.470;10.394;2022-11-02T10:34:37;7.63;;;2.23;;
6077;SDS011;3067;49.470;10.394;2022-11-02T10:37:11;4.80;;;1.97;;
6077;SDS011;3067;49.470;10.394;2022-11-02T10:39:41;11.20;;;2.10;;
6077;SDS011;3067;49.470;10.394;2022-11-02T10:42:15;4.10;;;1.70;;
6077;SDS011;3067;49.470;10.394;2022-11-02T10:44:51;9.63;;;1.90;;
6077;SDS011;3067;49.470;10.394;2022-11-02T10:47:24;8.47;;;2.00;;
6077;SDS011;3067;49.470;10.394;2022-11-02T10:52:41;3.63;;;1.60;;
6077;SDS011;3067;49.470;10.394;2022-11-02T10:55:12;7.23;;;1.80;;
6077;SDS011;3067;49.470;10.394;2022-11-02T10:57:41;5.87;;;2.10;;
6077;SDS011;3067;49.470;10.394;2022-11-02T11:00:27;8.70;;;2.30;;
6077;SDS011;3067;49.470;10.394;2022-11-02T11:03:01;4.33;;;1.73;;
6077;SDS011;3067;49.470;10.394;2022-11-02T11:05:29;4.27;;;1.70;;
6077;SDS011;3067;49.470;10.394;2022-11-02T11:07:56;16.43;;;2.70;;
6077;SDS011;3067;49.470;10.394;2022-11-02T11:10:24;3.93;;;1.80;;
6077;SDS011;3067;49.470;10.394;2022-11-02T11:12:52;4.50;;;2.03;;
6077;SDS011;3067;49.470;10.394;2022-11-02T11:15:21;8.53;;;2.10;;
6077;SDS011;3067;49.470;10.394;2022-11-02T11:17:49;5.90;;;1.70;;
6077;SDS011;3067;49.470;10.394;2022-11-02T11:20:24;6.23;;;1.70;;
6077;SDS011;3067;49.470;10.394;2022-11-02T11:23:05;2.70;;;1.50;;
6077;SDS011;3067;49.470;10.394;2022-11-02T11:25:33;7.17;;;1.90;;
6077;SDS011;3067;49.470;10.394;2022-11-02T11:28:00;9.60;;;2.37;;
6077;SDS011;3067;49.470;10.394;2022-11-02T11:30:28;4.13;;;1.70;;
6077;SDS011;3067;49.470;10.394;2022-11-02T11:32:57;8.70;;;2.10;;
6077;SDS011;3067;49.470;10.394;2022-11-02T11:35:27;5.17;;;2.00;;
6077;SDS011;3067;49.470;10.394;2022-11-02T11:37:55;3.60;;;1.70;;
6077;SDS011;3067;49.470;10.394;2022-11-02T11:40:23;4.90;;;2.10;;
6077;SDS011;3067;49.470;10.394;2022-11-02T11:42:52;4.50;;;1.70;;
6077;SDS011;3067;49.470;10.394;2022-11-02T11:45:21;3.50;;;1.47;;
6077;SDS011;3067;49.470;10.394;2022-11-02T11:47:50;7.60;;;1.90;;
6077;SDS011;3067;49.470;10.394;2022-11-02T11:50:19;7.57;;;2.33;;
6077;SDS011;3067;49.470;10.394;2022-11-02T11:52:46;3.57;;;1.60;;
6077;SDS011;3067;49.470;10.394;2022-11-02T11:55:21;2.30;;;1.50;;
6077;SDS011;3067;49.470;10.394;2022-11-02T11:58:05;5.17;;;2.20;;
6077;SDS011;3067;49.470;10.394;2022-11-02T12:00:32;11.60;;;2.67;;
6077;SDS011;3067;49.470;10.394;2022-11-02T12:03:03;15.83;;;2.57;;
6077;SDS011;3067;49.470;10.394;2022-11-02T12:05:32;6.93;;;1.73;;
6077;SDS011;3067;49.470;10.394;2022-11-02T12:08:07;4.10;;;1.40;;
6077;SDS011;3067;49.470;10.394;2022-11-02T12:10:56;9.30;;;1.80;;
6077;SDS011;3067;49.470;10.394;2022-11-02T12:13:29;5.37;;;1.20;;
6077;SDS011;3067;49.470;10.394;2022-11-02T12:16:05;5.23;;;1.40;;
6077;SDS011;3067;49.470;10.394;2022-11-02T12:18:42;3.17;;;1.50;;
6077;SDS011;3067;49.470;10.394;2022-11-02T12:21:24;4.93;;;1.60;;
6077;SDS011;3067;49.470;10.394;2022-11-02T12:24:00;5.87;;;1.73;;
6077;SDS011;3067;49.470;10.394;2022-11-02T12:26:35;5.63;;;1.63;;
6077;SDS011;3067;49.470;10.394;2022-11-02T12:29:11;3.27;;;1.40;;
6077;SDS011;3067;49.470;10.394;2022-11-02T12:31:42;5.63;;;1.60;;
6077;SDS011;3067;49.470;10.394;2022-11-02T12:36:58;7.37;;;1.50;;
6077;SDS011;3067;49.470;10.394;2022-11-02T12:39:32;4.37;;;1.40;;
6077;SDS011;3067;49.470;10.394;2022-11-02T12:42:10;5.10;;;1.10;;
6077;SDS011;3067;49.470;10.394;2022-11-02T12:44:43;7.97;;;1.30;;
6077;SDS011;3067;49.470;10.394;2022-11-02T12:47:21;8.70;;;1.50;;
6077;SDS011;3067;49.470;10.394;2022-11-02T12:49:55;3.33;;;1.40;;
6077;SDS011;3067;49.470;10.394;2022-11-02T12:52:30;6.93;;;1.30;;
6077;SDS011;3067;49.470;10.394;2022-11-02T12:55:00;4.97;;;1.20;;
6077;SDS011;3067;49.470;10.394;2022-11-02T12:57:30;1.60;;;1.13;;
6077;SDS011;3067;49.470;10.394;2022-11-02T12:59:59;4.87;;;1.17;;
6077;SDS011;3067;49.470;10.394;2022-11-02T13:02:29;3.63;;;1.17;;
6077;SDS011;3067;49.470;10.394;2022-11-02T13:04:59;3.53;;;1.00;;
6077;SDS011;3067;49.470;10.394;2022-11-02T13:10:01;3.53;;;1.20;;
6077;SDS011;3067;49.470;10.394;2022-11-02T13:12:30;3.20;;;1.10;;
6077;SDS011;3067;49.470;10.394;2022-11-02T13:14:59;3.63;;;1.47;;
6077;SDS011;3067;49.470;10.394;2022-11-02T13:17:28;4.10;;;1.40;;
6077;SDS011;3067;49.470;10.394;2022-11-02T13:19:56;5.60;;;1.43;;
6077;SDS011;3067;49.470;10.394;2022-11-02T13:22:26;3.90;;;1.23;;
6077;SDS011;3067;49.470;10.394;2022-11-02T13:24:55;2.40;;;1.20;;
6077;SDS011;3067;49.470;10.394;2022-11-02T13:27:29;7.00;;;1.20;;
6077;SDS011;3067;49.470;10.394;2022-11-02T13:29:57;4.70;;;1.30;;
6077;SDS011;3067;49.470;10.394;2022-11-02T13:32:27;2.40;;;1.10;;
6077;SDS011;3067;49.470;10.394;2022-11-02T13:34:56;9.23;;;1.27;;
6077;SDS011;3067;49.470;10.394;2022-11-02T13:37:25;2.70;;;1.40;;
6077;SDS011;3067;49.470;10.394;2022-11-02T13:39:54;6.67;;;1.50;;
6077;SDS011;3067;49.470;10.394;2022-11-02T13:42:25;8.10;;;1.37;;
6077;SDS011;3067;49.470;10.394;2022-11-02T13:47:50;6.03;;;1.80;;
6077;SDS011;3067;49.470;10.394;2022-11-02T13:50:21;4.70;;;1.60;;
6077;SDS011;3067;49.470;10.394;2022-11-02T13:52:50;3.57;;;1.10;;
6077;SDS011;3067;49.470;10.394;2022-11-02T13:55:19;4.03;;;1.40;;
6077;SDS011;3067;49.470;10.394;2022-11-02T13:57:48;6.60;;;1.17;;
6077;SDS011;3067;49.470;10.394;2022-11-02T14:00:25;4.30;;;1.40;;
6077;SDS011;3067;49.470;10.394;2022-11-02T14:02:56;6.33;;;1.50;;
6077;SDS011;3067;49.470;10.394;2022-11-02T14:05:26;6.97;;;1.30;;
6077;SDS011;3067;49.470;10.394;2022-11-02T14:07:58;3.00;;;1.50;;
6077;SDS011;3067;49.470;10.394;2022-11-02T14:10:25;5.53;;;1.60;;
6077;SDS011;3067;49.470;10.394;2022-11-02T14:12:54;3.33;;;1.50;;
6077;SDS011;3067;49.470;10.394;2022-11-02T14:18:12;7.80;;;1.50;;
6077;SDS011;3067;49.470;10.394;2022-11-02T14:20:40;2.70;;;1.47;;
6077;SDS011;3067;49.470;10.394;2022-11-02T14:23:30;2.40;;;1.33;;
6077;SDS011;3067;49.470;10.394;2022-11-02T14:25:59;8.63;;;1.47;;
6077;SDS011;3067;49.470;10.394;2022-11-02T14:28:30;3.23;;;1.50;;
6077;SDS011;3067;49.470;10.394;2022-11-02T14:30:58;4.63;;;1.40;;
6077;SDS011;3067;49.470;10.394;2022-11-02T14:33:56;5.43;;;1.40;;
6077;SDS011;3067;49.470;10.394;2022-11-02T14:36:34;3.17;;;1.50;;
6077;SDS011;3067;49.470;10.394;2022-11-02T14:39:09;3.87;;;1.17;;
6077;SDS011;3067;49.470;10.394;2022-11-02T14:41:48;2.53;;;1.13;;
6077;SDS011;3067;49.470;10.394;2022-11-02T14:47:13;6.60;;;1.40;;
6077;SDS011;3067;49.470;10.394;2022-11-02T14:49:46;7.47;;;1.33;;
6077;SDS011;3067;49.470;10.394;2022-11-02T14:52:18;5.47;;;1.30;;
6077;SDS011;3067;49.470;10.394;2022-11-02T14:54:49;4.03;;;1.40;;
6077;SDS011;3067;49.470;10.394;2022-11-02T14:57:19;5.40;;;1.80;;
6077;SDS011;3067;49.470;10.394;2022-11-02T14:59:48;5.13;;;1.40;;
6077;SDS011;3067;49.470;10.394;2022-11-02T15:02:18;8.63;;;1.53;;
6077;SDS011;3067;49.470;10.394;2022-11-02T15:04:48;2.27;;;1.60;;
6077;SDS011;3067;49.470;10.394;2022-11-02T15:07:17;6.07;;;2.07;;
6077;SDS011;3067;49.470;10.394;2022-11-02T15:09:55;9.50;;;1.80;;
6077;SDS011;3067;49.470;10.394;2022-11-02T15:12:33;3.83;;;1.83;;
6077;SDS011;3067;49.470;10.394;2022-11-02T15:15:14;8.17;;;1.83;;
6077;SDS011;3067;49.470;10.394;2022-11-02T15:17:51;9.07;;;1.93;;
6077;SDS011;3067;49.470;10.394;2022-11-02T15:20:29;6.13;;;1.57;;
6077;SDS011;3067;49.470;10.394;2022-11-02T15:22:59;5.00;;;1.90;;
6077;SDS011;3067;49.470;10.394;2022-11-02T15:25:30;10.47;;;2.10;;
6077;SDS011;3067;49.470;10.394;2022-11-02T15:28:04;3.70;;;1.90;;
6077;SDS011;3067;49.470;10.394;2022-11-02T15:30:32;7.67;;;2.40;;
6077;SDS011;3067;49.470;10.394;2022-11-02T15:33:10;7.00;;;2.10;;
6077;SDS011;3067;49.470;10.394;2022-11-02T15:35:42;6.70;;;2.07;;